Tiempo atmosférico en la estación meteorológica de Arroyo Del Ojanco, Jaén (580 m.)



Fecha
DESCASC
Temp. máxima en grados centígrados (hora)
DESCASC
Temp. mínima en grados centígrados (hora)
DESCASC
Temp. media en grados centígrados
DESCASC
Racha de viento máxima en m/sg (hora)
DESCASC
Velocidad máxima media en intervalos de 10 minutos(hora)
DESCASC
Precipitaciones diarias en mm
DESCASC
Precipitaciones de 00:00 a 06:00 en mm
DESCASC
Precipitaciones de 06:00 a 12:00 en mm
DESCASC
Precipitaciones de 12:00 a 18:00 en mm
DESCASC
Precipitaciones de 18:00 a 24:00 en mm
DESCASC
23-05-2018 26.5 (14:00) 13.8 (07:00) 20.2 10 (15:50) 5 (15:30) 0.5 0 0 0.5 0
22-05-2018 26.4 (19:00) 10.9 (06:20) 18.6 4.72 (16:30) 1.39 (00:30) 0 0 0 0 0
21-05-2018 22 (14:00) 12.7 (06:00) 17.3 7.5 (14:40) 3.89 (15:30) 3.9 0.9 0.2 2.7 0.1
20-05-2018 24.7 (15:40) 11.6 (00:00) 18.2 8.89 (16:30) 5.28 (16:40) 1.8 0 0 0 1.8
19-05-2018 25.5 (17:20) 12.4 (00:00) 18.9 8.61 (16:10) 4.72 (16:10) 0 0 0 0 0
18-05-2018 23.9 (13:50) 11.2 (00:00) 17.5 7.78 (14:40) 4.72 (16:00) 1.7 0 0 1.7 0
17-05-2018 25 (15:40) 14.3 (00:00) 19.7 11.67 (03:30) 5.28 (03:30) 0 0 0 0 0
16-05-2018 25.5 (16:20) 11.6 (00:00) 18.6 11.67 (16:40) 6.11 (18:10) 0 0 0 0 0
15-05-2018 25.1 (18:30) 8.5 (00:00) 16.8 5.83 (14:30) 2.78 (16:00) 0 0 0 0 0
14-05-2018 21 (17:40) 6.5 (00:00) 13.8 8.33 (17:40) 5 (17:50) 0 0 0 0 0
13-05-2018 19.7 (19:50) 6.6 (00:00) 13.2 7.5 (16:30) 2.78 (14:40) 0 0 0 0 0
12-05-2018 20.8 (18:10) 13.1 (00:00) 16.9 11.94 (17:50) 6.39 (19:10) 0 0 0 0 0
11-05-2018 26.1 (17:40) 12 (07:10) 19.1 7.22 (18:40) 4.17 (18:50) 0 0 0 0 0
10-05-2018 22.8 (19:00) 14.3 (00:00) 18.5 7.78 (00:50) 5 (15:30) 0 0 0 0 0
09-05-2018 20.9 (16:50) 10.9 (00:00) 15.9 9.17 (23:10) 5.56 (23:10) 0.2 0.1 0.1 0 0
08-05-2018 25.2 (16:50) 10.3 (00:00) 17.8 14.44 (18:50) 7.22 (19:10) 7.8 0 0 0 7.8
07-05-2018 25.4 (16:30) 10.7 (00:00) 18 11.39 (18:10) 5.83 (17:20) 0 0 0 0 0
06-05-2018 22.3 (14:30) 13.2 (00:00) 17.7 8.61 (18:00) 4.17 (17:40) 7.4 6 0.3 1 0.1
05-05-2018 24.9 (15:50) 12.2 (00:00) 18.5 9.17 (22:00) 5 (17:00) 0.2 0 0 0 0.2
04-05-2018 23.2 (18:40) 8 (00:00) 15.6 12.22 (16:50) 2.78 (06:00) 0 0 0 0 0
03-05-2018 21.1 (18:20) 7 (00:00) 14.1 10.28 (15:40) 3.89 (15:40) 2.8 0 0 2.7 0.1
02-05-2018 18.3 (18:00) 3.3 (00:00) 10.8 8.61 (12:10) 3.61 (19:00) 0 0 0 0 0
01-05-2018 15 (13:10) 4.7 (03:50) 9.8 7.5 (14:20) 3.33 (20:40) 0.1 0.1 0 0 0
30-04-2018 14.7 (18:50) 7.6 (00:00) 11.1 9.44 (15:20) 3.06 (21:20) 0.3 0.2 0 0 0.1
29-04-2018 14.1 (18:50) 6.6 (00:00) 10.4 13.06 (16:50) 8.33 (12:00) 1.5 0.1 1.1 0.3 0
28-04-2018 21.6 (16:00) 13.1 (00:00) 17.4 10.56 (16:10) 5.56 (16:10) 0 0 0 0 0
27-04-2018 24.7 (17:30) 15.2 (00:00) 20 9.17 (01:50) 5.56 (01:20) 0 0 0 0 0
26-04-2018 27 (19:20) 12.7 (00:00) 19.8 8.06 (15:20) 3.89 (13:00) 0 0 0 0 0
25-04-2018 24.3 (13:40) 15 (00:00) 19.6 8.89 (13:10) 4.72 (15:30) 0 0 0 0 0
24-04-2018 28.6 (17:50) 16.5 (00:00) 22.6 11.67 (15:20) 6.39 (11:20) 0 0 0 0 0

Gráficas

Temp. máximas Temp. mínimas Temp. medias Precipitaciones Rachas de viento máximas Velocidades máximas media en intervalos de 10 minutos

Datos horarios

Fecha y hora oficial Temperatura (ºC) Velocidad del viento (km/h) Dirección del viento Racha (km/h) Dirección de racha Precipitación (mm) Presión (hPa) Tendencia (hPa) Humedad (%)
2018-05-23 23:00:00 18.5 0 Calma 12 Nordeste 0 942.5 0.1 70
2018-05-23 22:00:00 18.7 3 Nordeste 11 Nordeste 0 941.5 -1.3 74
2018-05-23 21:00:00 19.2 0 Calma 9 Nordeste 0 942.3 -0.2 73
2018-05-23 20:00:00 19.5 0 Calma 8 Norte 0 942.4 -0.9 69
2018-05-23 19:00:00 20.4 0 Calma 18 Sudeste 0 942.8 -1.7 64
2018-05-23 18:00:00 20.4 4 Sudeste 23 Este 0.1 942.5 -1.7 58
2018-05-23 17:00:00 18.4 13 Este 26 Sur 0.4 943.3 -0.5 73
2018-05-23 16:00:00 21.1 14 Sur 36 Sudoeste 0 944.5 0.5 51
2018-05-23 15:00:00 24.9 13 Sudoeste 27 Oeste 0 944.2 0.5 40
2018-05-23 14:00:00 25.9 9 Oeste 25 Oeste 0 943.8 0.2 38
2018-05-23 13:00:00 25.2 2 Sudoeste 15 Sudoeste 0 944 0.5 43
2018-05-23 12:00:00 23.2 0 Calma 10 Noroeste 0 943.7 0.8 49
2018-05-23 11:00:00 21.5 0 Calma 12 Oeste 0 943.6 1.5 55
2018-05-23 10:00:00 19.5 0 Calma 6 Sudoeste 0 943.5 1.9 65
2018-05-23 09:00:00 18 0 Calma -- -- 0 942.9 1.4 73
2018-05-23 08:00:00 15.2 0 Calma -- -- 0 942.1 0.2 83
2018-05-23 07:00:00 13.9 0 Calma 0 Calma 0 941.6 -0.5 85
2018-05-23 06:00:00 14.3 0 Calma -- -- 0 941.5 -0.9 82
2018-05-23 05:00:00 15.2 0 Calma -- -- 0 941.9 -0.8 77
2018-05-23 04:00:00 15.7 0 Calma -- -- 0 942.1 -0.8 71
2018-05-23 03:00:00 16.1 0 Calma -- -- 0 942.4 -0.4 67
2018-05-23 02:00:00 17.8 0 Calma 6 Norte 0 942.7 0.1 58
2018-05-23 01:00:00 18.2 0 Calma 0 Calma 0 942.9 0.9 55
2018-05-23 00:00:00 20.3 0 Calma 9 Sur 0 942.8 1.3 43
2018-05-22 23:00:00 21.7 0 Calma 10 Sur 0 942.6 1.2 40
2018-05-22 22:00:00 22.5 0 Calma 6 Sudeste 0 942 0.7 40
2018-05-22 21:00:00 24.8 0 Calma 11 Oeste 0 941.5 0.2 37
2018-05-22 20:00:00 25.2 0 Calma 13 Oeste 0 941.4 0 35
2018-05-22 19:00:00 26.4 0 Calma 17 Oeste 0 941.3 -0.4 35
2018-05-22 18:00:00 25.9 3 Noroeste 16 Oeste 0 941.3 -0.4 36
2018-05-22 17:00:00 25.5 4 Noroeste 17 Noroeste 0 941.4 -0.6 38
2018-05-22 16:00:00 24.7 2 Oeste 15 Oeste 0 941.7 -0.5 38
2018-05-22 15:00:00 23.4 2 Oeste 16 Oeste 0 941.7 -0.6 44
2018-05-22 14:00:00 21.7 3 Oeste 13 Oeste 0 942 -0.1 51
2018-05-22 13:00:00 20.3 0 Calma 12 Noroeste 0 942.2 0.2 59
2018-05-22 12:00:00 18.4 0 Calma 9 Norte 0 942.3 1 68
2018-05-22 11:00:00 17.1 0 Calma 9 Noroeste 0 942.1 1.3 75
2018-05-22 10:00:00 15.7 3 Noroeste 9 Noroeste 0 942 1.7 85
2018-05-22 09:00:00 13 4 Nordeste 8 Norte 0 941.3 1.5 99
2018-05-22 08:00:00 12.1 0 Calma -- -- 0 940.8 1.1 99
2018-05-22 07:00:00 11.5 0 Calma -- -- 0 940.3 0.5 99
2018-05-22 06:00:00 11.1 0 Calma -- -- 0 939.8 -0.3 99
2018-05-22 05:00:00 11.1 0 Calma -- -- 0 939.7 -0.5 99
2018-05-22 04:00:00 11.5 0 Calma -- -- 0 939.8 -0.7 99
2018-05-22 03:00:00 11.8 0 Calma -- -- 0 940.1 -0.5 98
2018-05-22 02:00:00 12.4 0 Calma 4 Norte 0 940.2 -0.4 96
2018-05-22 01:00:00 13.1 4 Nordeste 8 Sudeste 0 940.5 0.8 92
2018-05-22 00:00:00 13.4 0 Calma 9 Sudeste 0 940.6 1 92
2018-05-21 23:00:00 14.3 0 Calma -- -- 0 940.6 1.4 93
2018-05-21 22:00:00 14.4 0 Calma -- -- 0 939.7 0.8 91
2018-05-21 21:00:00 15.1 0 Calma 9 Sur 0.1 939.6 0.9 87
2018-05-21 20:00:00 15.2 0 Calma 13 Sudoeste 0 939.2 1.1 89
2018-05-21 19:00:00 15.4 4 Sudoeste 14 Oeste 0 938.9 0.2 82
2018-05-21 18:00:00 16 2 Norte 10 Norte 0 938.7 -0.6 91
2018-05-21 17:00:00 15.1 0 Calma 18 Este 0.6 938.1 -1.2 92
2018-05-21 16:00:00 14.6 0 Calma 22 Este 0.3 938.7 -0.8 89
2018-05-21 15:00:00 14.4 4 Este 27 Sudoeste 1.8 939.3 -0.3 79
2018-05-21 14:00:00 21.5 11 Sudoeste 19 Sudoeste 0 939.3 -0.4 49
2018-05-21 13:00:00 19.1 6 Sudoeste 17 Sudoeste 0 939.5 0.2 55
2018-05-21 12:00:00 18.6 0 Calma 9 Noroeste 0 939.6 0.7 60
2018-05-21 11:00:00 16.4 0 Calma 8 Sudoeste 0 939.7 1.2 80
2018-05-21 10:00:00 14.5 0 Calma 6 Sudoeste 0 939.3 0.9 96
2018-05-21 09:00:00 14.2 0 Calma 0 Calma 0.2 938.9 0.5 97
2018-05-21 08:00:00 13.8 0 Calma -- -- 0 938.5 -0.1 99
2018-05-21 07:00:00 12.8 0 Calma 5 Sudeste 0 938.4 -0.5 99
2018-05-21 06:00:00 12.8 0 Calma -- -- 0 938.4 -0.9 99
2018-05-21 05:00:00 13.7 0 Calma -- -- 0 938.6 -1.1 99
2018-05-21 04:00:00 13.9 0 Calma -- -- 0 938.9 -1.4 99
2018-05-21 03:00:00 13.8 0 Calma -- -- 0.1 939.3 -1.5 99
2018-05-21 02:00:00 14.1 0 Calma -- -- 0.1 939.7 -1 99
2018-05-21 01:00:00 14.5 0 Calma 6 Sudeste 0.7 940.3 -0.3 98
2018-05-21 00:00:00 14.4 4 Sur 14 Sudeste 0.8 940.8 1 91
2018-05-20 23:00:00 14.9 0 Calma 27 Sudoeste 1 940.7 1.7 87
2018-05-20 22:00:00 17.1 18 Sur 31 Sur 0 940.6 2 62
2018-05-20 21:00:00 19.1 15 Sudoeste 24 Oeste 0 939.8 1 49
2018-05-20 20:00:00 21.1 0 Calma 10 Sur 0 939 0.2 45
2018-05-20 19:00:00 21.4 4 Sur 15 Oeste 0 938.6 -0.7 44
2018-05-20 18:00:00 20.5 9 Oeste 27 Oeste 0 938.8 -1 46
2018-05-20 17:00:00 22.6 16 Sudoeste 32 Sudoeste 0 938.8 -1.6 41
2018-05-20 16:00:00 23.8 3 Nordeste 22 Nordeste 0 939.3 -1.8 33
2018-05-20 15:00:00 23.6 8 Norte 26 Nordeste 0 939.8 -1.8 35
2018-05-20 14:00:00 23 5 Norte 18 Nordeste 0 940.4 -1.2 41
2018-05-20 13:00:00 21.4 8 Nordeste 18 Nordeste 0 941.1 -0.3 43
2018-05-20 12:00:00 19.8 5 Nordeste 13 Nordeste 0 941.6 0.5 55
2018-05-20 11:00:00 18.7 2 Norte 13 Nordeste 0 941.6 1 62
2018-05-20 10:00:00 16.4 4 Norte 9 Norte 0 941.4 1.1 75
2018-05-20 09:00:00 13 0 Calma 14 Nordeste 0 941.1 0.5 88
2018-05-20 08:00:00 12.1 0 Calma 7 Sudeste 0 940.6 0.1 96
2018-05-20 07:00:00 11.8 0 Calma 0 Calma 0 940.3 -0.4 94
2018-05-20 06:00:00 11.9 0 Calma -- -- 0 940.6 -1.1 93
2018-05-20 05:00:00 12.4 0 Calma 11 Nordeste 0 940.5 -1.8 91
2018-05-20 04:00:00 13.7 0 Calma 5 Sudeste 0 940.7 -1.7 85
2018-05-20 03:00:00 14.1 0 Calma 0 Calma 0 941.7 -0.7 83
2018-05-20 02:00:00 15.3 0 Calma 13 Sur 0 942.3 0.5 79
2018-05-20 01:00:00 16.5 8 Sur 17 Sur 0 942.4 1 72
2018-05-20 00:00:00 17.2 6 Sur 24 Sudoeste 0 942.4 1.4 63
2018-05-19 23:00:00 18.7 16 Sudoeste 29 Sur 0 941.8 1.2 55
2018-05-19 22:00:00 20.4 13 Sudoeste 28 Sur 0 941.4 0.7 49
2018-05-19 21:00:00 22.3 6 Este 21 Nordeste 0 941 0.3 33
2018-05-19 20:00:00 24.4 12 Nordeste 22 Nordeste 0 940.6 -0.4 30
2018-05-19 19:00:00 24.8 9 Este 27 Nordeste 0 940.7 -0.8 30
2018-05-19 18:00:00 25 10 Este 28 Este 0 940.7 -1.4 31
2018-05-19 17:00:00 24.2 14 Nordeste 31 Nordeste 0 941 -1.5 32
2018-05-19 16:00:00 24.7 9 Nordeste 27 Nordeste 0 941.5 -1.6 35
2018-05-19 15:00:00 23.5 10 Nordeste 29 Nordeste 0 942.1 -0.8 37
2018-05-19 14:00:00 22.7 10 Nordeste 21 Norte 0 942.5 -0.5 41
2018-05-19 13:00:00 21.7 13 Nordeste 26 Nordeste 0 943.1 0 43
2018-05-19 12:00:00 20.8 12 Norte 21 Norte 0 942.9 0.4 49
2018-05-19 11:00:00 18.7 0 Calma 9 Norte 0 943 1 67
2018-05-19 10:00:00 16.2 0 Calma 9 Norte 0 943.1 1.3 76
2018-05-19 09:00:00 15.1 4 Nordeste 9 Norte 0 942.5 1 82
2018-05-19 08:00:00 12.5 0 Calma -- -- 0 942 0.6 95
2018-05-19 07:00:00 12.4 0 Calma -- -- 0 941.8 0.2 94
2018-05-19 06:00:00 12.7 0 Calma 6 Nordeste 0 941.5 -0.4 90
2018-05-19 05:00:00 12.9 0 Calma 0 Calma 0 941.4 -1 88
2018-05-19 04:00:00 13.5 0 Calma 8 Sudoeste 0 941.6 -1 88
2018-05-19 03:00:00 13.3 0 Calma -- -- 0 941.9 -0.8 86
2018-05-19 02:00:00 14.4 0 Calma -- -- 0 942.4 -0.1 81
2018-05-19 01:00:00 15.6 0 Calma 9 Nordeste 0 942.6 0.3 76
2018-05-19 00:00:00 16.5 7 Nordeste 17 Nordeste 0 942.7 0.6 70
2018-05-18 23:00:00 16 0 Calma 0 Calma 0 942.5 0.5 71
2018-05-18 22:00:00 16.5 0 Calma -- -- 0 942.3 0.4 67
2018-05-18 21:00:00 18.4 0 Calma 11 Nordeste 0 942.1 0.3 58
2018-05-18 20:00:00 20.7 3 Noroeste 17 Norte 0 942 0.5 52
2018-05-18 19:00:00 20.5 4 Norte 20 Noroeste 0 941.9 0.7 54
2018-05-18 18:00:00 20.7 11 Noroeste 21 Noroeste 0 941.8 0.6 52
2018-05-18 17:00:00 21.1 0 Calma 26 Oeste 0 941.5 -0.8 49
2018-05-18 16:00:00 22 17 Sudoeste 28 Sudoeste 0 941.2 -1.5 50
2018-05-18 15:00:00 17.9 6 Sudoeste 28 Sudoeste 1.7 941.2 -1.4 76
2018-05-18 14:00:00 23.2 0 Calma 14 Noroeste 0 942.3 -0.3 38
2018-05-18 13:00:00 23.3 3 Sudoeste 15 Noroeste 0 942.7 0.4 40
2018-05-18 12:00:00 21.5 0 Calma 14 Nordeste 0 942.6 0.7 44
2018-05-18 11:00:00 19.1 5 Nordeste 18 Nordeste 0 942.6 1.4 49
2018-05-18 10:00:00 17.3 2 Nordeste 10 Nordeste 0 942.3 1.3 58
2018-05-18 09:00:00 14.6 0 Calma 8 Norte 0 941.9 1.1 71
2018-05-18 08:00:00 12.3 0 Calma -- -- 0 941.2 0.2 86
2018-05-18 07:00:00 11.4 0 Calma -- -- 0 941 -0.3 88
2018-05-18 06:00:00 11.8 0 Calma -- -- 0 940.8 -0.7 82
2018-05-18 05:00:00 13 0 Calma -- -- 0 941 -0.9 78
2018-05-18 04:00:00 13.3 0 Calma 0 Calma 0 941.3 -0.4 73
2018-05-18 03:00:00 15.7 0 Calma 10 Sur 0 941.5 -0.2 64
2018-05-18 02:00:00 16 2 Sur 16 Sudoeste 0 941.9 0.3 55
2018-05-18 01:00:00 17 0 Calma 10 Nordeste 0 941.7 0.7 48
2018-05-18 00:00:00 18.3 2 Nordeste 19 Sudeste 0 941.7 1 46
2018-05-17 23:00:00 19.3 6 Sudeste 22 Sudeste 0 941.6 1.3 43
2018-05-17 22:00:00 20.1 10 Sudeste 26 Sudeste 0 941 0.9 41
2018-05-17 21:00:00 21 4 Sudeste 23 Sudeste 0 940.7 0.6 40
2018-05-17 20:00:00 22.4 8 Sudeste 28 Sudeste 0 940.3 0.1 38
2018-05-17 19:00:00 23.1 5 Sudeste 20 Sudeste 0 940.1 -0.3 37
2018-05-17 18:00:00 23.4 5 Sudeste 27 Sur 0 940.1 -0.4 37
2018-05-17 17:00:00 24.1 10 Sudeste 28 Sur 0 940.2 -0.4 36
2018-05-17 16:00:00 24.2 10 Sur 30 Sur 0 940.4 -0.6 37
2018-05-17 15:00:00 24.6 8 Sur 30 Este 0 940.5 -0.2 36
2018-05-17 14:00:00 23.7 5 Sudeste 23 Sur 0 940.6 -0.2 37
2018-05-17 13:00:00 22.7 5 Este 34 Nordeste 0 941 0.1 41
2018-05-17 12:00:00 21.4 12 Nordeste 30 Nordeste 0 940.7 0.1 43
2018-05-17 11:00:00 20 14 Nordeste 27 Nordeste 0 940.8 0.6 45
2018-05-17 10:00:00 18.8 11 Nordeste 24 Norte 0 940.9 0.8 46
2018-05-17 09:00:00 17.1 5 Nordeste 14 Este 0 940.6 0.6 49
2018-05-17 08:00:00 15.8 6 Este 17 Este 0 940.2 -0.1 49
2018-05-17 07:00:00 15.4 8 Este 20 Nordeste 0 940.1 -0.1 47
2018-05-17 06:00:00 15.2 9 Nordeste 22 Este 0 940 -0.2 47
2018-05-17 05:00:00 15.3 7 Nordeste 28 Sudeste 0 940.3 0.2 46
2018-05-17 04:00:00 16.8 15 Sudeste 42 Sudeste 0 940.2 -0.1 44
2018-05-17 03:00:00 17 17 Sudeste 39 Sudeste 0 940.2 -0.4 42
2018-05-17 02:00:00 16.5 0 Calma 15 Nordeste 0 940.1 -0.3 43
2018-05-17 01:00:00 16.8 0 Calma 17 Nordeste 0 940.3 0.5 43
2018-05-17 00:00:00 18.7 3 Este 22 Este 0 940.6 1 39
2018-05-16 23:00:00 19.3 7 Sudeste 25 Sudeste 0 940.4 1.1 37
2018-05-16 22:00:00 20 7 Sudeste 31 Este 0 939.8 0.5 37
2018-05-16 21:00:00 21.9 9 Este 30 Este 0 939.6 0.4 35
2018-05-16 20:00:00 23.9 9 Este 35 Nordeste 0 939.3 -0.1 34
2018-05-16 19:00:00 24.5 21 Nordeste 40 Nordeste 0 939.3 -0.7 35
2018-05-16 18:00:00 25 17 Nordeste 37 Nordeste 0 939.2 -1.4 35
2018-05-16 17:00:00 25.3 16 Nordeste 42 Nordeste 0 939.4 -1.7 34
2018-05-16 16:00:00 24.6 15 Nordeste 33 Norte 0 940 -1.4 34
2018-05-16 15:00:00 24.1 17 Nordeste 30 Nordeste 0 940.6 -0.8 37
2018-05-16 14:00:00 24.2 13 Nordeste 31 Nordeste 0 941.1 -0.2 38
2018-05-16 13:00:00 23.2 16 Nordeste 33 Nordeste 0 941.4 0.5 40
2018-05-16 12:00:00 22.6 13 Nordeste 27 Norte 0 941.4 0.4 40
2018-05-16 11:00:00 21.4 14 Norte 26 Nordeste 0 941.3 0.8 44
2018-05-16 10:00:00 18.4 13 Nordeste 22 Norte 0 940.9 0.8 56
2018-05-16 09:00:00 17.4 9 Nordeste 17 Nordeste 0 941 0.9 58
2018-05-16 08:00:00 14.4 0 Calma 12 Nordeste 0 940.5 0.1 69
2018-05-16 07:00:00 12.7 6 Nordeste 13 Nordeste 0 940.1 -0.7 73
2018-05-16 06:00:00 11.8 0 Calma 0 Calma 0 940.1 -0.7 76
2018-05-16 05:00:00 12.7 0 Calma -- -- 0 940.4 -1 72
2018-05-16 04:00:00 13.1 0 Calma 7 Nordeste 0 940.8 -1 70
2018-05-16 03:00:00 14.2 0 Calma 11 Nordeste 0 940.8 -1.3 66
2018-05-16 02:00:00 15.7 5 Nordeste 13 Nordeste 0 941.4 -0.7 60
2018-05-16 01:00:00 16.3 0 Calma 6 Nordeste 0 941.8 0.3 56
2018-05-16 00:00:00 16.2 0 Calma 8 Nordeste 0 942.1 0.6 52
2018-05-15 23:00:00 18.4 0 Calma 8 Nordeste 0 942.1 0.9 44
2018-05-15 22:00:00 19 0 Calma 8 Nordeste 0 941.5 0.1 42
2018-05-15 21:00:00 22.3 0 Calma 12 Norte 0 941.5 -0.1 35
2018-05-15 20:00:00 24.2 5 Norte 17 Norte 0 941.2 -1 32
2018-05-15 19:00:00 24.8 5 Norte 19 Nordeste 0 941.4 -1.3 32
2018-05-15 18:00:00 24.1 3 Norte 19 Norte 0 941.6 -1.5 32
2018-05-15 17:00:00 24.1 0 Calma 18 Norte 0 942.2 -1.3 32
2018-05-15 16:00:00 23.4 10 Noroeste 21 Norte 0 942.7 -1.3 33
2018-05-15 15:00:00 22.4 0 Calma 21 Nordeste 0 943.1 -1 35
2018-05-15 14:00:00 21.2 6 Nordeste 21 Norte 0 943.5 -0.3 37
2018-05-15 13:00:00 21.1 0 Calma 20 Este 0 944 0.5 38
2018-05-15 12:00:00 19.6 2 Nordeste 16 Este 0 944.1 1 41
2018-05-15 11:00:00 18 4 Nordeste 16 Norte 0 943.8 1.4 47
2018-05-15 10:00:00 15.5 8 Nordeste 17 Nordeste 0 943.5 1.2 55
2018-05-15 09:00:00 12.6 8 Nordeste 15 Nordeste 0 943.1 1.1 64
2018-05-15 08:00:00 9.6 0 Calma 15 Nordeste 0 942.4 0.1 79
2018-05-15 07:00:00 9 5 Nordeste 15 Nordeste 0 942.3 -0.1 76
2018-05-15 06:00:00 9 0 Calma 16 Nordeste 0 942 -0.9 77
2018-05-15 05:00:00 10.4 8 Nordeste 13 Nordeste 0 942.3 -1.3 70
2018-05-15 04:00:00 9.8 0 Calma 8 Nordeste 0 942.4 -1.6 70
2018-05-15 03:00:00 12.3 5 Nordeste 13 Este 0 942.9 -1.3 61
2018-05-15 02:00:00 12.7 0 Calma 13 Nordeste 0 943.6 -0.5 58
2018-05-15 01:00:00 14 0 Calma 9 Nordeste 0 944 0.2 53
2018-05-15 00:00:00 14.3 0 Calma 12 Este 0 944.2 0.6 52
2018-05-14 23:00:00 16.1 0 Calma 10 Nordeste 0 944.1 0.6 47
2018-05-14 22:00:00 16.1 0 Calma 10 Nordeste 0 943.8 0.3 46
2018-05-14 21:00:00 19.3 0 Calma 10 Norte 0 943.6 -0.3 41
2018-05-14 20:00:00 20.2 4 Norte 19 Norte 0 943.5 -0.5 40
2018-05-14 19:00:00 20.8 7 Norte 21 Noroeste 0 943.5 -0.9 39
2018-05-14 18:00:00 19.7 14 Norte 30 Norte 0 943.9 -0.7 40
2018-05-14 17:00:00 20.2 11 Norte 26 Norte 0 944 -1.1 40
2018-05-14 16:00:00 19.7 10 Nordeste 25 Norte 0 944.4 -0.6 40
2018-05-14 15:00:00 19.7 8 Nordeste 26 Este 0 944.6 -0.6 40
2018-05-14 14:00:00 18.9 9 Norte 24 Norte 0 945.1 0.1 40
2018-05-14 13:00:00 18 0 Calma 18 Nordeste 0 945 -0.4 44
2018-05-14 12:00:00 16.9 0 Calma 15 Norte 0 945.2 0.2 45
2018-05-14 11:00:00 15.5 0 Calma 11 Norte 0 945 0.8 50
2018-05-14 10:00:00 13.9 0 Calma 6 Norte 0 945.4 1.9 55
2018-05-14 09:00:00 10.6 0 Calma 9 Nordeste 0 945 1.3 62
2018-05-14 08:00:00 8 0 Calma -- -- 0 944.2 0.3 73
2018-05-14 07:00:00 6.8 0 Calma 0 Calma 0 943.5 -0.8 72
2018-05-14 06:00:00 7 0 Calma 0 Calma 0 943.7 -1.1 68
2018-05-14 05:00:00 7.5 0 Calma -- -- 0 943.9 -1.2 64
2018-05-14 04:00:00 8.6 0 Calma 10 Nordeste 0 944.3 -1.4 56
2018-05-14 03:00:00 10 0 Calma 10 Nordeste 0 944.8 -1.1 51
2018-05-14 02:00:00 10.1 0 Calma -- -- 0 945.1 -0.8 49
2018-05-14 01:00:00 10.5 0 Calma -- -- 0 945.7 -0.1 46
2018-05-11 20:00:00 23.6 14 Oeste 24 Sudoeste 0 943.8 -0.1 42
2018-05-11 19:00:00 24.6 14 Oeste 26 Oeste 0 943.8 -0.4 41
2018-05-11 18:00:00 25.2 13 Oeste 23 Noroeste 0 944 -0.8 41
2018-05-11 17:00:00 25.4 12 Oeste 22 Oeste 0 943.9 -1.2 41
2018-05-11 16:00:00 25.3 10 Oeste 24 Oeste 0 944.2 -1 41
2018-05-11 15:00:00 23.5 9 Oeste 21 Oeste 0 944.8 -0.7 46
2018-05-11 14:00:00 23.2 4 Oeste 17 Oeste 0 945.1 -0.2 50
2018-05-11 13:00:00 21.7 5 Noroeste 14 Noroeste 0 945.2 0.1 52
2018-05-11 12:00:00 20.2 3 Oeste 12 Oeste 0 945.5 1 60
2018-05-11 11:00:00 18 5 Oeste 9 Oeste 0 945.3 1.4 70
2018-05-11 10:00:00 16.4 0 Calma -- -- 0 945.1 1.6 80
2018-05-11 09:00:00 14.5 0 Calma -- -- 0 944.5 1.1 92
2018-05-11 08:00:00 12.3 0 Calma -- -- 0 943.9 1 97
2018-05-11 07:00:00 12.6 0 Calma 6 Sudoeste 0 943.5 0.8 95
2018-05-11 06:00:00 12.8 5 Sudoeste 9 Sur 0 943.4 0.3 97
2018-05-11 05:00:00 13.1 0 Calma -- -- 0 942.9 -0.5 99
2018-05-11 04:00:00 13.3 0 Calma 9 Sur 0 942.7 -1.2 98
2018-05-11 03:00:00 13.7 0 Calma 9 Sudoeste 0 943.1 -0.9 95
2018-05-11 02:00:00 14.5 6 Sur 10 Sur 0 943.4 -0.5 92
2018-05-11 01:00:00 15.7 0 Calma 7 Este 0 943.9 0.5 87
2018-05-11 00:00:00 16.5 0 Calma 11 Sudeste 0 944 1.3 81
2018-05-10 23:00:00 17.8 6 Sur 15 Sudeste 0 943.9 1.9 73
2018-05-10 22:00:00 18.3 7 Sur 24 Sudoeste 0 943.4 1.6 70
2018-05-10 21:00:00 19.7 18 Sudoeste 26 Sudoeste 0 942.7 1.2 64
2018-05-10 20:00:00 21.6 14 Sudoeste 24 Sudoeste 0 942 0.2 55
2018-05-10 19:00:00 22.1 10 Sudoeste 23 Sudoeste 0 941.8 0.1 54
2018-05-10 18:00:00 22 9 Oeste 20 Oeste 0 941.5 -0.3 57
2018-05-10 17:00:00 21.6 10 Sur 23 Sudoeste 0 941.8 -0.2 60
2018-05-10 16:00:00 20.6 14 Sudoeste 27 Oeste 0 941.7 -0.2 64
2018-05-10 15:00:00 20.8 13 Sudoeste 22 Oeste 0 941.8 0.1 62
2018-05-10 14:00:00 20.4 6 Noroeste 14 Noroeste 0 942 0.2 63
2018-05-10 13:00:00 18.6 6 Sudoeste 18 Oeste 0 941.9 0.4 73
2018-05-10 12:00:00 17.5 6 Oeste 13 Oeste 0 941.7 0.8 80
2018-05-10 11:00:00 16.2 5 Oeste 15 Oeste 0 941.8 1.2 88
2018-05-10 10:00:00 15.7 7 Oeste 15 Oeste 0 941.5 1.7 94
2018-05-10 09:00:00 14.7 8 Sudoeste 17 Sudoeste 0 940.9 1.5 99
2018-05-10 08:00:00 14.4 11 Sudoeste 19 Sudoeste 0 940.6 1 99
2018-05-10 07:00:00 14.6 10 Sudoeste 20 Sudoeste 0 939.8 0.1 98
2018-05-10 06:00:00 14.6 12 Sudoeste 22 Sudoeste 0 939.4 -0.5 99
2018-05-10 05:00:00 15.2 11 Sudoeste 19 Sudoeste 0 939.6 -0.9 99
2018-05-10 04:00:00 15.7 9 Sudoeste 17 Sudoeste 0 939.7 -0.9 99
2018-05-10 03:00:00 15.6 12 Sudoeste 18 Sudoeste 0 939.9 -0.8 95
2018-05-10 02:00:00 15.8 12 Sudoeste 24 Sudoeste 0 940.5 0.1 91
2018-05-10 01:00:00 16 16 Sudoeste 28 Sudoeste 0 940.6 0.9 88
2018-05-10 00:00:00 16.4 18 Sudoeste 33 Sudoeste 0 940.7 1.5 85
2018-05-09 23:00:00 17.2 19 Sudoeste 32 Sudoeste 0 940.4 1.4 82
2018-05-09 22:00:00 17.9 16 Sudoeste 28 Sudoeste 0 939.7 0.8 79
2018-05-09 21:00:00 17.7 17 Sudoeste 32 Sudoeste 0 939.2 0.8 79
2018-05-09 20:00:00 18.7 20 Sudoeste 32 Sudoeste 0 939 0.3 71
2018-05-09 19:00:00 19.3 13 Sudoeste 30 Sudoeste 0 938.9 -0.2 70
2018-05-09 18:00:00 19 15 Sudoeste 29 Sudoeste 0 938.4 -1.3 70
2018-05-09 17:00:00 20.1 18 Sudoeste 28 Sudoeste 0 938.7 -1.1 66
2018-05-09 16:00:00 19.5 14 Sudoeste 24 Sudoeste 0 939.1 -1 70
2018-05-09 15:00:00 18.3 15 Oeste 22 Oeste 0 939.7 -0.6 78
2018-05-09 14:00:00 17.7 14 Sudoeste 22 Oeste 0 939.8 -0.2 80
2018-05-09 13:00:00 16.7 10 Sudoeste 19 Sudoeste 0 940.1 0.4 89
2018-05-09 12:00:00 15.8 11 Oeste 22 Sudoeste 0 940.3 1.3 91
2018-05-09 11:00:00 15.5 13 Sudoeste 19 Oeste 0 940 1.7 90
2018-05-09 10:00:00 13.9 2 Oeste 5 Noroeste 0 939.7 2.4 99
2018-05-09 09:00:00 12.7 2 Noroeste 8 Nordeste 0 939 1.7 99
2018-05-09 08:00:00 11.4 3 Sudoeste 9 Nordeste 0 938.3 0.6 99
2018-05-09 07:00:00 11.5 0 Calma 12 Nordeste 0.1 937.3 -0.9 99
2018-05-09 06:00:00 11.5 5 Sur 10 Sur 0 937.3 -1.5 99
2018-05-09 05:00:00 11.9 0 Calma -- -- 0 937.7 -1.5 99
2018-05-09 04:00:00 12.3 2 Norte 10 Sur 0.1 938.2 -1.2 99
2018-05-09 03:00:00 12.4 0 Calma 8 Nordeste 0 938.8 -0.8 99
2018-05-09 02:00:00 13 5 Sudeste 8 Sudoeste 0 939.2 0.3 99
2018-05-09 01:00:00 13.3 0 Calma 7 Este 0 939.4 0.5 99
2018-05-09 00:00:00 13.6 0 Calma 9 Nordeste 0 939.6 1 99
2018-05-08 23:00:00 14.1 3 Este 13 Nordeste 0 938.9 0.6 98
2018-05-08 22:00:00 14.5 0 Calma 17 Sudeste 0 938.9 0.1 97
2018-05-08 21:00:00 14.9 18 Sudeste 25 Sudeste 0.2 938.6 0.9 94
2018-05-08 20:00:00 14.9 3 Sur 42 Sudeste 3.4 938.3 -0.1 97
2018-05-08 19:00:00 16.1 17 Este 52 Nordeste 4.2 938.8 -0.2 77
2018-05-08 18:00:00 24.3 12 Sudoeste 24 Sudoeste 0 937.7 -1.8 46
2018-05-08 17:00:00 24.8 3 Oeste 27 Sudoeste 0 938.4 -1.6 45
2018-05-08 16:00:00 23.6 5 Sudoeste 22 Sudoeste 0 939 -1.6 49
2018-05-08 15:00:00 22.5 0 Calma 19 Oeste 0 939.5 -1.4 52
2018-05-08 14:00:00 21.1 4 Oeste 17 Oeste 0 940 -0.7 55
2018-05-08 13:00:00 19.6 3 Sudoeste 17 Sudoeste 0 940.6 0.2 65
2018-05-08 12:00:00 17.7 3 Sudoeste 15 Oeste 0 940.9 0.7 73
2018-05-08 11:00:00 16.3 0 Calma 9 Oeste 0 940.7 1 81
2018-05-08 10:00:00 14.4 3 Sudoeste 10 Sudoeste 0 940.4 1.2 91
2018-05-08 09:00:00 13 0 Calma -- -- 0 940.2 0.7 96
2018-05-08 08:00:00 11.3 0 Calma 6 Nordeste 0 939.7 0.4 97
2018-05-08 07:00:00 11 0 Calma 9 Nordeste 0 939.2 0 96
2018-05-08 06:00:00 10.7 3 Nordeste 9 Nordeste 0 939.5 -0.1 91
2018-05-08 05:00:00 11.2 0 Calma 6 Sur 0 939.3 -0.8 89
2018-05-08 04:00:00 11.9 0 Calma 0 Calma 0 939.2 -1.2 87
2018-05-08 03:00:00 12.1 0 Calma 4 Norte 0 939.6 -1.1 86
2018-05-08 02:00:00 13.6 0 Calma 6 Sudoeste 0 940.1 -0.7 79
2018-05-08 01:00:00 14.2 0 Calma -- -- 0 940.4 0.3 77
2018-05-08 00:00:00 15 0 Calma 0 Calma 0 940.7 0.4 75
2018-05-07 23:00:00 15.4 0 Calma 0 Calma 0 940.8 0.6 72
2018-05-07 22:00:00 17.2 0 Calma 0 Calma 0 940.1 -0.1 57
2018-05-07 21:00:00 19.1 0 Calma 0 Calma 0 940.3 0.4 52
2018-05-07 20:00:00 21 0 Calma 13 Oeste 0 940.2 0.3 44
2018-05-07 19:00:00 22.2 6 Sur 41 Sudeste 0 940.2 -0.4 40
2018-05-07 18:00:00 21.5 19 Sudeste 39 Sudeste 0 939.9 -1.3 43
2018-05-07 17:00:00 22.5 11 Sudeste 25 Sudeste 0 939.9 -1.9 40
2018-05-07 16:00:00 24.2 2 Noroeste 17 Nordeste 0 940.6 -1.5 37
2018-05-07 15:00:00 23.2 0 Calma 16 Norte 0 941.2 -1.3 40
2018-05-07 14:00:00 22.2 0 Calma 12 Sudoeste 0 941.8 -0.6 43
2018-05-07 13:00:00 21.8 0 Calma 17 Norte 0 942.1 0 44
2018-05-07 12:00:00 20.4 0 Calma 8 Noroeste 0 942.5 1.1 52
2018-05-07 11:00:00 18.6 0 Calma 6 Nordeste 0 942.4 1.5 63
2018-05-07 10:00:00 16.4 0 Calma 6 Nordeste 0 942.1 1.3 70
2018-05-07 09:00:00 13.8 0 Calma 3 Norte 0 941.4 0.8 87
2018-05-07 08:00:00 11.3 0 Calma 6 Este 0 940.9 0.1 91
2018-05-07 07:00:00 11.4 0 Calma 6 Sur 0 940.8 -0.3 88
2018-05-07 06:00:00 13.2 0 Calma 8 Este 0 940.6 -0.9 77
2018-05-07 05:00:00 13.5 0 Calma 11 Nordeste 0 940.8 -1.1 74
2018-05-07 04:00:00 14.9 8 Nordeste 15 Nordeste 0 941.1 -1 70
2018-05-07 03:00:00 13.3 0 Calma 13 Norte 0 941.5 -0.6 77
2018-05-07 02:00:00 14.6 0 Calma 7 Este 0 941.9 -0.1 72
2018-05-07 01:00:00 15 0 Calma 6 Sudeste 0 942.1 0.3 70
2018-05-07 00:00:00 15.2 0 Calma 5 Este 0 942.1 0.7 70
2018-05-06 23:00:00 16.1 0 Calma 11 Este 0 942 1.1 67
2018-05-06 22:00:00 16.4 0 Calma 7 Sudeste 0 941.8 0.9 67
2018-05-06 21:00:00 18.9 0 Calma 4 Oeste 0.1 941.4 0.6 58
2018-05-06 20:00:00 20.2 0 Calma 18 Sudoeste 0 940.9 -0.2 53
2018-05-06 19:00:00 20.8 0 Calma 18 Este 0 940.9 -0.4 55
2018-05-06 18:00:00 21.2 14 Este 31 Este 0 940.8 -1.5 43
2018-05-06 17:00:00 19.4 0 Calma 17 Sudeste 0 941.1 -1.1 73
2018-05-06 16:00:00 17.7 0 Calma 23 Sudeste 1 941.3 -1.7 80
2018-05-06 15:00:00 19 14 Sudeste 23 Sudeste 0 942.3 -0.7 58
2018-05-06 14:00:00 20.3 3 Oeste 17 Oeste 0 942.2 -0.6 60
2018-05-06 13:00:00 19 8 Sudoeste 18 Este 0 943 0.3 68
2018-05-06 12:00:00 18.9 8 Este 18 Este 0 943 0.2 53
2018-05-06 11:00:00 15.2 5 Nordeste 13 Nordeste 0 942.8 -0.1 91
2018-05-06 10:00:00 13.8 0 Calma 10 Norte 0.3 942.7 0.3 99
2018-05-06 09:00:00 13.7 6 Nordeste 10 Nordeste 0 942.8 0.9 99
2018-05-06 08:00:00 13.7 0 Calma 8 Este 0 942.9 0.4 99
2018-05-06 07:00:00 13.6 0 Calma 14 Sudeste 0 942.4 0.3 99
2018-05-06 06:00:00 13.4 11 Sudeste 14 Sudeste 0 941.9 -0.4 97
2018-05-06 05:00:00 13.4 0 Calma 16 Sudeste 4.1 942.5 0 99
2018-05-06 04:00:00 13.9 4 Sudeste 15 Sudeste 1.5 942.1 -0.5 94
2018-05-06 03:00:00 14.9 0 Calma 9 Nordeste 0.4 942.3 -0.7 88
2018-05-06 02:00:00 16.6 0 Calma 19 Nordeste 0 942.5 -0.8 70
2018-05-06 01:00:00 16 0 Calma 13 Sur 0 942.6 -0.6 77
2018-05-06 00:00:00 16.4 10 Este 31 Este 0 943 1.2 73
2018-05-05 23:00:00 17.2 6 Nordeste 27 Nordeste 0.2 943.3 1.7 68
2018-05-05 22:00:00 18.1 15 Nordeste 33 Nordeste 0 943.2 1.6 61
2018-05-05 21:00:00 20.4 4 Sudoeste 16 Sudoeste 0 941.8 0.1 49
2018-05-05 20:00:00 22.1 0 Calma 13 Sur 0 941.6 -0.1 43
2018-05-05 19:00:00 21.4 4 Sudeste 21 Sudeste 0 941.6 -0.1 46
2018-05-05 18:00:00 21.1 0 Calma 27 Nordeste 0 941.7 -0.3 48
2018-05-05 17:00:00 22.7 18 Nordeste 32 Este 0 941.7 -0.8 42
2018-05-05 16:00:00 23.2 8 Nordeste 23 Nordeste 0 941.7 -1.1 39
2018-05-05 15:00:00 23.1 6 Norte 18 Nordeste 0 942 -0.7 40
2018-05-05 14:00:00 22.4 3 Noroeste 15 Noroeste 0 942.5 -0.1 42
2018-05-05 13:00:00 20.6 3 Oeste 13 Oeste 0 942.8 0.6 52
2018-05-05 12:00:00 19.3 0 Calma 12 Oeste 0 942.7 0.8 58
2018-05-05 11:00:00 17.3 4 Oeste 18 Oeste 0 942.6 1.3 64
2018-05-05 10:00:00 16.9 0 Calma 12 Sudoeste 0 942.2 1.2 67
2018-05-05 09:00:00 15.9 0 Calma -- -- 0 941.9 0.7 70
2018-05-05 08:00:00 12.7 0 Calma 6 Sudoeste 0 941.3 0.5 79
2018-05-05 07:00:00 13.1 0 Calma 6 Sur 0 941 0.1 76
2018-05-05 06:00:00 14.2 0 Calma 5 Sudoeste 0 941.2 0 70
2018-05-05 05:00:00 14.3 0 Calma 6 Sudoeste 0 940.8 0.3 68
2018-05-05 04:00:00 15.2 0 Calma 4 Sur 0 940.9 0.2 62
2018-05-05 03:00:00 16.1 2 Sudoeste 14 Sudoeste 0 941.2 0.8 55
2018-05-05 02:00:00 15.8 0 Calma 10 Sudeste 0 940.5 0.1 55
2018-05-05 01:00:00 16.1 0 Calma 0 Calma 0 940.7 0.8 52
2018-05-05 00:00:00 15.9 0 Calma 12 Nordeste 0 940.4 0.7 49
2018-05-04 23:00:00 17.9 0 Calma 0 Calma 0 940.4 1.3 45
2018-05-04 22:00:00 17.7 0 Calma 7 Sudeste 0 939.9 0.9 43
2018-05-04 21:00:00 21 0 Calma 5 Norte 0 939.7 0.8 38
2018-05-04 20:00:00 21.8 0 Calma 14 Noroeste 0 939.1 0.4 34
2018-05-04 19:00:00 23 4 Noroeste 15 Norte 0 939 0.4 34
2018-05-04 18:00:00 22.5 4 Noroeste 18 Noroeste 0 938.9 0.2 34
2018-05-04 17:00:00 22.4 2 Norte 44 Noroeste 0 938.7 -0.1 34
2018-05-04 16:00:00 21 0 Calma 14 Sudeste 0 938.6 -0.6 34
2018-05-04 15:00:00 20 0 Calma 15 Este 0 938.7 0 36
2018-05-04 14:00:00 19.5 0 Calma 15 Nordeste 0 938.8 0.6 37
2018-05-04 13:00:00 18.8 0 Calma 13 Noroeste 0 939.2 1.5 44
2018-05-04 12:00:00 16.8 0 Calma 16 Nordeste 0 938.7 1.1 50
2018-05-04 11:00:00 14.3 7 Nordeste 16 Nordeste 0 938.2 1.2 58
2018-05-04 10:00:00 12 7 Nordeste 16 Nordeste 0 937.7 1.1 66
2018-05-04 09:00:00 10.5 2 Nordeste 8 Nordeste 0 937.6 0.9 72
2018-05-04 08:00:00 8.4 0 Calma 10 Nordeste 0 937 0.2 78
2018-05-04 07:00:00 8.3 0 Calma 18 Nordeste 0 936.6 -0.5 79
2018-05-04 06:00:00 8.9 10 Nordeste 15 Nordeste 0 936.7 -0.8 81
2018-05-04 05:00:00 8.9 2 Nordeste 8 Nordeste 0 936.8 -1.2 79
2018-05-04 04:00:00 9.3 0 Calma 6 Nordeste 0 937.1 -1.7 82
2018-05-04 03:00:00 10.8 0 Calma 5 Nordeste 0 937.5 -1.8 75
2018-05-04 02:00:00 12 0 Calma 0 Calma 0 938 -1.1 80
2018-05-04 01:00:00 13 0 Calma -- -- 0 938.8 0.1 77
2018-05-04 00:00:00 14.7 0 Calma 4 Noroeste 0 939.3 1 71
2018-05-03 23:00:00 15.4 0 Calma -- -- 0 939.1 0.9 63
2018-05-03 22:00:00 16 0 Calma 3 Norte 0 938.7 0.6 55
2018-05-03 21:00:00 17.6 0 Calma 16 Norte 0 938.3 0 53
2018-05-03 20:00:00 19 3 Noroeste 22 Norte 0 938.2 -0.1 46
2018-05-03 19:00:00 20 12 Norte 24 Norte 0.1 938.1 -0.8 46
2018-05-03 18:00:00 19.4 0 Calma 15 Noroeste 0 938.3 -1.5 48
2018-05-03 17:00:00 18.8 0 Calma 15 Sudeste 0 938.3 -2.1 58
2018-05-03 16:00:00 14.7 11 Sudeste 37 Norte 2.7 938.9 -2.1 74
2018-05-03 15:00:00 19.4 0 Calma 13 Oeste 0 939.8 -1.3 46
2018-05-03 14:00:00 18.7 0 Calma 12 Noroeste 0 940.4 -0.7 48
2018-05-03 13:00:00 18 0 Calma 14 Norte 0 941 0.2 49
2018-05-03 12:00:00 15.7 0 Calma 13 Nordeste 0 941.1 0.7 53
2018-05-03 11:00:00 14.1 0 Calma 7 Norte 0 941.1 1.3 58
2018-05-03 10:00:00 12.8 0 Calma 3 Norte 0 940.8 0.9 58
2018-05-03 09:00:00 11.1 0 Calma -- -- 0 940.4 0.1 76
2018-05-03 08:00:00 8.1 0 Calma -- -- 0 939.8 -0.8 78
2018-05-03 07:00:00 7.2 0 Calma -- -- 0 939.9 -0.9 77
2018-05-03 06:00:00 8.6 0 Calma -- -- 0 940.3 -1.1 71
2018-05-03 05:00:00 8.5 0 Calma -- -- 0 940.6 -1.3 68
2018-05-03 04:00:00 9.1 0 Calma -- -- 0 940.8 -1.4 59
2018-05-03 03:00:00 10.3 0 Calma 0 Calma 0 941.4 -0.6 59
2018-05-03 02:00:00 10.6 0 Calma 4 Sudeste 0 941.9 0.1 58
2018-05-03 01:00:00 11 0 Calma 6 Sudeste 0 942.2 0.7 56
2018-05-03 00:00:00 11.8 0 Calma 5 Sur 0 942 0.7 58
2018-05-02 23:00:00 12.9 0 Calma -- -- 0 941.8 0.6 55
2018-05-02 22:00:00 13.3 0 Calma -- -- 0 941.5 0 52
2018-05-02 21:00:00 15 0 Calma 16 Oeste 0 941.3 -0.1 46
2018-05-02 20:00:00 16.3 2 Sudoeste 15 Oeste 0 941.2 -0.2 42
2018-05-02 19:00:00 17.6 13 Oeste 24 Oeste 0 941.5 -0.1 38
2018-05-02 18:00:00 18.2 7 Oeste 25 Oeste 0 941.4 -0.4 39
2018-05-02 17:00:00 16.8 4 Noroeste 17 Noroeste 0 941.4 -0.7 42
2018-05-02 16:00:00 16.3 4 Oeste 23 Oeste 0 941.6 -0.8 41
2018-05-02 15:00:00 15.8 0 Calma 22 Sudoeste 0 941.8 -0.6 43
2018-05-02 14:00:00 14.8 8 Oeste 23 Oeste 0 942.1 -0.1 46
2018-05-02 13:00:00 14.9 4 Sudoeste 31 Sudoeste 0 942.4 0.9 49
2018-05-02 12:00:00 12.6 4 Oeste 19 Oeste 0 942.4 1.8 57
2018-05-02 11:00:00 11.5 3 Oeste 14 Noroeste 0 942.2 2 69
2018-05-02 10:00:00 8.6 0 Calma 3 Norte 0 941.5 1.7 88
2018-05-02 09:00:00 5.6 0 Calma -- -- 0 940.6 0.9 99
2018-05-02 08:00:00 4 0 Calma -- -- 0 940.2 0.3 99
2018-05-02 07:00:00 3.5 0 Calma -- -- 0 939.8 -0.1 99
2018-05-02 06:00:00 3.7 0 Calma 4 Nordeste 0 939.7 -0.6 99
2018-05-02 05:00:00 4.3 0 Calma -- -- 0 939.9 -0.4 99
2018-05-02 04:00:00 5.2 0 Calma -- -- 0 939.9 -0.6 99
2018-05-02 03:00:00 5.3 0 Calma -- -- 0 940.3 -0.3 97
2018-05-02 02:00:00 5.7 0 Calma 9 Sudeste 0 940.3 -0.2 92
2018-05-02 01:00:00 7.2 3 Sudeste 9 Sudeste 0 940.5 -0.4 87
2018-05-02 00:00:00 8.4 0 Calma 9 Sur 0 940.6 0.5 80
2018-05-01 23:00:00 8.6 0 Calma 11 Sudoeste 0 940.5 0.6 81
2018-05-01 22:00:00 9.9 3 Sur 14 Sudoeste 0 940.9 1.3 71
2018-05-01 21:00:00 10.2 9 Sudoeste 21 Sudoeste 0 940.1 0.9 66
2018-05-01 20:00:00 12.1 2 Sudoeste 14 Sudoeste 0 939.9 0.2 59
2018-05-01 19:00:00 12.6 6 Oeste 18 Oeste 0 939.6 -0.8 58
2018-05-01 18:00:00 12.5 3 Oeste 17 Oeste 0 939.2 -0.9 59
2018-05-01 17:00:00 10.9 3 Sudoeste 23 Sudoeste 0 939.7 0.2 64
2018-05-01 16:00:00 9.2 4 Sudoeste 16 Oeste 0 940.4 0.6 79
2018-05-01 15:00:00 9.4 0 Calma 27 Noroeste 0 940.1 0.3 69
2018-05-01 14:00:00 13 3 Noroeste 21 Norte 0 939.5 -0.5 47
2018-05-01 13:00:00 14 3 Sudoeste 15 Sudoeste 0 939.8 0.3 46
2018-05-01 12:00:00 12.6 0 Calma 12 Sudoeste 0 939.8 1.1 60
2018-05-01 11:00:00 11.1 0 Calma 8 Sudoeste 0 940 1.7 71
2018-05-01 10:00:00 9.6 0 Calma 6 Nordeste 0 939.5 1.4 79
2018-05-01 09:00:00 6.8 0 Calma 8 Nordeste 0 938.7 0.8 99
2018-05-01 08:00:00 5.3 0 Calma 12 Nordeste 0 938.3 0.2 99
2018-05-01 07:00:00 6 4 Sudeste 10 Sur 0 938.1 -0.1 99
2018-05-01 06:00:00 5.4 3 Nordeste 11 Nordeste 0 937.9 -0.7 99
2018-05-01 05:00:00 5.5 0 Calma -- -- 0 938.1 -1.3 99
2018-05-01 04:00:00 5.1 0 Calma -- -- 0 938.2 -1.6 99
2018-05-01 03:00:00 5.3 0 Calma -- -- 0.1 938.6 -1.2 97
2018-05-01 02:00:00 5.7 0 Calma -- -- 0 939.4 -0.7 94
2018-05-01 01:00:00 6.9 0 Calma 0 Calma 0 939.8 -0.2 94
2018-05-01 00:00:00 7.6 0 Calma 10 Sur 0 939.8 0 85
2018-04-30 23:00:00 8.5 2 Sudeste 16 Sudeste 0 940.1 0.7 82
2018-04-30 22:00:00 8.5 4 Sur 23 Oeste 0.1 940 0.8 79
2018-04-30 21:00:00 10.5 3 Nordeste 22 Nordeste 0 939.8 0.4 64
2018-04-30 20:00:00 11.5 6 Este 30 Norte 0 939.4 -0.1 58
2018-04-30 19:00:00 13.6 5 Oeste 19 Oeste 0 939.2 -0.3 47
2018-04-30 18:00:00 13.5 0 Calma 21 Noroeste 0 939.4 -0.8 48
2018-04-30 17:00:00 13.8 4 Noroeste 19 Oeste 0 939.5 -1.1 47
2018-04-30 16:00:00 13.7 6 Oeste 34 Sudoeste 0 939.5 -1.3 46
2018-04-30 15:00:00 13.2 9 Sudoeste 23 Sudoeste 0 940.2 -0.7 46
2018-04-30 14:00:00 13.6 6 Sudoeste 24 Sudoeste 0 940.6 -0.1 49
2018-04-30 13:00:00 12.5 2 Sudoeste 16 Sudoeste 0 940.8 0.2 58
2018-04-30 12:00:00 11.4 5 Oeste 18 Oeste 0 940.9 0.7 62
2018-04-30 11:00:00 10.5 6 Sudoeste 15 Sudoeste 0 940.7 0.9 72
2018-04-30 10:00:00 9.8 5 Oeste 13 Sudoeste 0 940.6 1.2 84
2018-04-30 09:00:00 8.9 5 Sudoeste 12 Sudoeste 0 940.2 0.5 97
2018-04-30 08:00:00 8.2 0 Calma 7 Sur 0 939.8 0 99
2018-04-30 07:00:00 8.2 0 Calma 7 Sudoeste 0 939.4 -0.7 99
2018-04-30 06:00:00 8.6 0 Calma 7 Sudoeste 0 939.7 -1 98
2018-04-30 05:00:00 8.9 0 Calma 13 Sudoeste 0.1 939.8 -1.7 96
2018-04-30 04:00:00 8.9 3 Sudoeste 12 Sudoeste 0 940.1 -1.6 95
2018-04-30 03:00:00 8.7 0 Calma 13 Sudoeste 0 940.7 -1.1 95
2018-04-30 02:00:00 8.9 6 Sudoeste 13 Sur 0.1 941.5 -0.3 99
2018-04-30 01:00:00 9.2 5 Sudoeste 18 Sudoeste 0 941.7 0.9 86
2018-04-30 00:00:00 9.8 0 Calma 22 Oeste 0 941.8 1.9 77
2018-04-29 23:00:00 11.2 14 Oeste 35 Sudoeste 0 941.8 2.2 67
2018-04-29 22:00:00 12.1 16 Sudoeste 27 Sudoeste 0 940.8 1.3 58
2018-04-29 21:00:00 12.2 14 Sudoeste 33 Oeste 0 939.9 0.1 56
2018-04-29 20:00:00 13.7 14 Sudoeste 36 Sudoeste 0 939.6 -0.1 55
2018-04-29 19:00:00 13.7 17 Oeste 34 Oeste 0 939.5 0 56
2018-04-29 18:00:00 12.5 19 Oeste 35 Oeste 0 939.8 -0.6 61
2018-04-29 17:00:00 11.4 20 Oeste 47 Sudoeste 0 939.7 0 65
2018-04-29 16:00:00 11.9 15 Sudoeste 37 Oeste 0 939.5 0.1 67
2018-04-29 15:00:00 9.5 23 Oeste 45 Oeste 0.1 940.4 1.3 74
2018-04-29 14:00:00 10.6 19 Sudoeste 39 Sudoeste 0.1 939.7 1.8 67
2018-04-29 13:00:00 9.2 16 Sudoeste 39 Sudoeste 0.1 939.4 2.3 79
2018-04-29 12:00:00 8.2 30 Sudoeste 45 Sudoeste 0 939.1 2.9 83
2018-04-29 11:00:00 7.4 22 Sudoeste 38 Oeste 0.7 937.9 2.5 92
2018-04-29 10:00:00 7.7 26 Sudoeste 45 Sudoeste 0 937.1 2.2 86
2018-04-29 09:00:00 7.6 24 Sudoeste 47 Sudoeste 0.1 936.2 1.9 86
2018-04-29 08:00:00 7.1 25 Sudoeste 41 Sudoeste 0 935.4 0.7 93
2018-04-29 07:00:00 6.7 22 Sudoeste 45 Sudoeste 0.3 934.9 -0.3 99
2018-04-29 06:00:00 8.4 25 Sudoeste 43 Sudoeste 0 934.3 -1.3 82
2018-04-29 05:00:00 8.4 22 Sudoeste 43 Sudoeste 0.1 934.7 -1.6 85
2018-04-29 04:00:00 9.9 14 Sudoeste 32 Oeste 0 935.2 -1 74
2018-04-29 03:00:00 10.3 15 Sudoeste 38 Oeste 0 935.6 -0.5 72
2018-04-29 02:00:00 10.8 16 Sudoeste 39 Sudoeste 0 936.3 0.3 69
2018-04-29 01:00:00 11.9 18 Sudoeste 33 Sudoeste 0 936.2 0.7 63
2018-04-29 00:00:00 13.3 15 Sudoeste 31 Oeste 0 936.1 0.5 54
2018-04-28 23:00:00 13.9 13 Sudoeste 24 Sudoeste 0 936 0.4 53
2018-04-28 22:00:00 14.3 9 Sudoeste 19 Sudoeste 0 935.5 -0.5 51
2018-04-28 21:00:00 15.4 13 Oeste 30 Sudoeste 0 935.6 -0.7 50
2018-04-28 20:00:00 16.7 9 Sudoeste 31 Sudoeste 0 935.6 -1 52
2018-04-28 19:00:00 18.8 15 Oeste 33 Noroeste 0 936 -0.9 49
2018-04-28 18:00:00 18.9 13 Oeste 35 Oeste 0 936.3 -1.3 55
2018-04-28 17:00:00 19.4 13 Oeste 38 Oeste 0 936.6 -1.5 55
2018-04-28 16:00:00 21.4 17 Sudoeste 35 Sudoeste 0 936.9 -1.7 52
2018-04-28 15:00:00 19.4 10 Oeste 28 Oeste 0 937.6 -1 56
2018-04-28 14:00:00 19.8 12 Oeste 32 Oeste 0 938.1 -0.4 55
2018-04-28 13:00:00 19.6 10 Oeste 37 Oeste 0 938.6 0.1 60
2018-04-28 12:00:00 17.5 15 Oeste 31 Oeste 0 938.6 0.2 64
2018-04-28 11:00:00 17.1 14 Sudoeste 23 Sudoeste 0 938.5 0.4 72
2018-04-28 10:00:00 15.9 8 Sudoeste 19 Oeste 0 938.5 0.4 81
2018-04-28 09:00:00 14.3 9 Oeste 15 Sudoeste 0 938.4 0.1 85
2018-04-28 08:00:00 13.3 8 Sur 15 Sur 0 938.1 -0.6 85
2018-04-28 07:00:00 13.2 4 Sur 14 Sur 0 938.1 -0.9 82
2018-04-28 06:00:00 14.1 0 Calma 13 Sur 0 938.3 -1.1 76
2018-04-28 05:00:00 15.2 4 Sur 18 Sudoeste 0 938.7 -1.2 73
2018-04-28 04:00:00 16.4 6 Sudoeste 20 Sudoeste 0 939 -1.2 71
2018-04-28 03:00:00 16.9 8 Sudoeste 22 Sudoeste 0 939.4 -1.2 71
2018-04-28 02:00:00 17.5 9 Sudoeste 19 Sudoeste 0 939.9 -1 65
2018-04-28 01:00:00 17.8 8 Sur 15 Sur 0 940.2 -0.2 58
2018-04-28 00:00:00 18.1 0 Calma 4 Sudoeste 0 940.6 0.7 52
2018-04-27 23:00:00 18.5 0 Calma 13 Sur 0 940.9 0.8 51
2018-04-27 22:00:00 19.2 10 Sur 18 Sur 0 940.4 0.2 46
2018-04-27 21:00:00 20.3 6 Sudoeste 23 Sudoeste 0 939.9 -0.4 52
2018-04-27 20:00:00 22.2 11 Sudoeste 25 Sudoeste 0 940.1 -0.1 52
2018-04-27 19:00:00 23.9 7 Sudoeste 28 Oeste 0 940.2 -0.6 49
2018-04-27 18:00:00 23.5 15 Oeste 31 Oeste 0 940.3 -1.2 48
2018-04-27 17:00:00 23.8 11 Oeste 31 Oeste 0 940.2 -1.6 50
2018-04-27 16:00:00 23.9 10 Oeste 28 Sudoeste 0 940.8 -1.4 55
2018-04-27 15:00:00 22.6 9 Oeste 27 Oeste 0 941.5 -1 58
2018-04-27 14:00:00 21.8 9 Oeste 21 Oeste 0 941.8 -0.7 62
2018-04-27 13:00:00 20.2 6 Oeste 21 Oeste 0 942.2 -0.3 70
2018-04-27 12:00:00 18.2 9 Oeste 18 Oeste 0 942.5 0.2 78
2018-04-27 11:00:00 15.9 6 Sudoeste 20 Sudoeste 0 942.5 0.1 91
2018-04-27 10:00:00 15.4 11 Sudoeste 25 Sudoeste 0 942.5 0.3 91
2018-04-27 09:00:00 15.4 12 Sudoeste 27 Sudoeste 0 942.3 -0.1 91
2018-04-27 08:00:00 15.3 13 Sudoeste 28 Sudoeste 0 942.4 -0.1 92
2018-04-27 07:00:00 15.5 15 Sudoeste 24 Sudoeste 0 942.2 -0.4 93
2018-04-27 06:00:00 16.1 12 Sudoeste 27 Sudoeste 0 942.4 -0.7 91
2018-04-27 05:00:00 16.6 17 Sudoeste 27 Sudoeste 0 942.5 -1.1 92
2018-04-27 04:00:00 17 14 Sudoeste 29 Sudoeste 0 942.6 -1.5 92
2018-04-27 03:00:00 17.3 18 Sudoeste 33 Sudoeste 0 943.1 -0.6 90
2018-04-27 02:00:00 17.9 19 Sudoeste 33 Sudoeste 0 943.6 0.3 85
2018-04-27 01:00:00 18.2 18 Sudoeste 31 Sudoeste 0 944.1 1.3 84
2018-04-27 00:00:00 18.7 6 Sudoeste 15 Sur 0 943.7 1.1 63
2018-04-26 23:00:00 18.8 0 Calma 8 Oeste 0 943.3 1 60
2018-04-26 22:00:00 20.3 0 Calma 5 Sudoeste 0 942.8 0.5 55
2018-04-26 21:00:00 21.9 0 Calma 17 Oeste 0 942.6 0.3 49
2018-04-26 20:00:00 26.3 0 Calma 5 Oeste 0 942.3 0 37
2018-04-26 19:00:00 26.7 0 Calma 18 Nordeste 0 942.3 -0.3 37
2018-04-26 18:00:00 26.1 6 Nordeste 24 Nordeste 0 942.3 -0.7 37
2018-04-26 17:00:00 25.7 8 Nordeste 26 Nordeste 0 942.3 -1.1 37
2018-04-26 16:00:00 25.8 9 Norte 29 Nordeste 0 942.6 -1.1 40
2018-04-26 15:00:00 24.5 9 Norte 28 Nordeste 0 943 -1.2 42
2018-04-26 14:00:00 23.6 6 Nordeste 26 Nordeste 0 943.4 -0.1 43
2018-04-26 13:00:00 22.5 14 Nordeste 24 Norte 0 943.7 0.6 44
2018-04-26 12:00:00 21.8 10 Este 26 Nordeste 0 944.2 1.3 46
2018-04-26 11:00:00 19.5 14 Nordeste 22 Nordeste 0 943.5 1.1 61
2018-04-26 10:00:00 16.8 6 Norte 12 Nordeste 0 943.1 1.3 70
2018-04-26 09:00:00 13.9 9 Nordeste 17 Nordeste 0 942.9 1.2 84
2018-04-26 08:00:00 13.4 4 Nordeste 10 Este 0 942.4 0.5 86
2018-04-26 07:00:00 12.8 0 Calma 10 Nordeste 0 941.8 -0.6 86
2018-04-26 06:00:00 13.7 4 Nordeste 11 Este 0 941.7 -0.8 81
2018-04-26 05:00:00 14.2 0 Calma 9 Este 0 941.9 -0.8 76
2018-04-26 04:00:00 15.8 3 Este 10 Este 0 942.4 -0.8 69
2018-04-26 03:00:00 15.5 0 Calma 8 Este 0 942.5 -1.3 68
2018-04-26 02:00:00 16.4 4 Este 14 Nordeste 0 942.7 -1.2 62
2018-04-26 01:00:00 16.6 4 Este 10 Nordeste 0 943.2 0.1 59
2018-04-26 00:00:00 17.3 0 Calma 9 Nordeste 0 943.8 1 56
2018-04-25 23:00:00 17.7 0 Calma 10 Nordeste 0 943.9 1.5 55
2018-04-25 22:00:00 19 4 Este 12 Este 0 943.1 1.2 52
2018-04-25 21:00:00 19.9 0 Calma 20 Este 0 942.8 1 50
2018-04-25 20:00:00 21 8 Este 25 Este 0 942.4 0.3 47
2018-04-25 19:00:00 21.9 8 Sudeste 22 Este 0 941.9 -0.2 45
2018-04-25 18:00:00 21.7 2 Este 24 Este 0 941.8 -0.5 46
2018-04-25 17:00:00 22.2 7 Este 26 Nordeste 0 942.1 -0.4 43
2018-04-25 16:00:00 23.4 12 Nordeste 30 Nordeste 0 942.1 -0.5 40
2018-04-25 15:00:00 23.7 11 Este 26 Nordeste 0 942.3 -0.7 38
2018-04-25 14:00:00 23.4 15 Nordeste 32 Nordeste 0 942.5 -0.1 38
2018-04-25 13:00:00 23.7 8 Nordeste 26 Norte 0 942.6 0.4 44
2018-04-25 12:00:00 21.6 0 Calma 8 Oeste 0 943 1.1 51
2018-04-25 11:00:00 18.5 0 Calma 13 Nordeste 0 942.6 0.7 57
2018-04-25 10:00:00 17.1 5 Nordeste 20 Nordeste 0 942.2 0.3 59
2018-04-25 09:00:00 15.8 8 Nordeste 15 Nordeste 0 941.9 0.1 59
2018-04-25 08:00:00 16.1 0 Calma 8 Nordeste 0 941.9 0.5 58
2018-04-25 07:00:00 16.3 9 Nordeste 16 Nordeste 0 941.9 0.3 53
2018-04-25 06:00:00 15.8 3 Este 12 Nordeste 0 941.8 0 55
2018-04-25 05:00:00 17.1 6 Este 17 Este 0 941.4 -1 52
2018-04-25 04:00:00 16.6 0 Calma 14 Nordeste 0 941.6 -1.4 58
2018-04-25 03:00:00 16.8 0 Calma 16 Nordeste 0 941.8 -1 56
2018-04-25 02:00:00 17 6 Nordeste 14 Nordeste 0 942.4 -0.3 55
2018-04-25 01:00:00 18 4 Nordeste 25 Este 0 943 1.4 51
2018-04-25 00:00:00 19.6 13 Este 26 Este 0 942.8 1.7 48
2018-04-24 23:00:00 20.3 9 Este 20 Nordeste 0 942.7 1.9 46
2018-04-24 22:00:00 22.2 6 Este 24 Nordeste 0 941.6 0.9 40
2018-04-24 21:00:00 23.1 8 Este 23 Sudeste 0 941.1 0.8 39
2018-04-24 20:00:00 26.2 8 Sudeste 37 Sudeste 0 940.8 0.2 34
2018-04-24 19:00:00 27.1 11 Sudeste 33 Sudeste 0 940.7 -0.6 33
2018-04-24 18:00:00 27.5 15 Sudeste 35 Sur 0 940.3 -1.4 33
2018-04-24 17:00:00 27.5 5 Este 29 Nordeste 0 940.6 -1.1 34
2018-04-24 16:00:00 26.6 4 Este 42 Sudeste 0 941.3 -0.7 35
2018-04-24 15:00:00 26.5 20 Sudeste 36 Sudeste 0 941.7 0.1 34
2018-04-24 14:00:00 27.2 14 Este 39 Sur 0 941.7 0.1 34
2018-04-24 13:00:00 26.8 4 Sudeste 41 Nordeste 0 942 0.7 34
2018-04-24 12:00:00 24.2 19 Nordeste 35 Nordeste 0 941.6 0.4 37
2018-04-24 11:00:00 21.7 17 Nordeste 28 Nordeste 0 941.6 0.8 41
2018-04-24 10:00:00 18.4 12 Nordeste 26 Este 0 941.3 0.6 45
2018-04-24 09:00:00 18.2 15 Nordeste 32 Nordeste 0 941.2 0.3 43
2018-04-24 08:00:00 17.8 19 Nordeste 32 Nordeste 0 940.8 -0.6 43
2018-04-24 07:00:00 17.1 4 Nordeste 15 Nordeste 0 940.7 -0.8 44
2018-04-24 06:00:00 16.6 0 Calma 9 Norte 0 940.9 -1.4 46
2018-04-24 05:00:00 17.4 6 Norte 30 Este 0 941.4 -2.4 45
2018-04-24 04:00:00 18.3 10 Nordeste 28 Nordeste 0 941.5 -1.8 45
2018-04-24 03:00:00 18.7 20 Nordeste 33 Nordeste 0 942.3 0.3 46
2018-04-24 02:00:00 21 8 Este 29 Sudeste 0 943.8 1.9 44
2018-04-24 01:00:00 19.7 0 Calma 19 Norte 0 943.3 0.6 49
2018-04-24 00:00:00 20.9 6 Nordeste 30 Este 0 942 -0.3 45